createdAt,value
2023-03-20T00:01:30.108Z,1.60
2023-03-20T00:03:58.400Z,1.27
2023-03-20T00:06:31.434Z,1.80
2023-03-20T00:08:58.895Z,1.58
2023-03-20T00:11:44.412Z,1.65
2023-03-20T00:14:14.966Z,1.52
2023-03-20T00:16:46.157Z,1.85
2023-03-20T00:19:25.989Z,1.55
2023-03-20T00:21:55.066Z,1.20
2023-03-20T00:24:23.612Z,1.50
2023-03-20T00:26:52.522Z,1.30
2023-03-20T00:29:30.767Z,1.58
2023-03-20T00:31:59.181Z,1.20
2023-03-20T00:34:29.841Z,1.48
2023-03-20T00:36:58.180Z,1.90
2023-03-20T00:39:26.310Z,1.50
2023-03-20T00:41:56.699Z,1.48
2023-03-20T00:44:24.209Z,1.38
2023-03-20T00:46:58.220Z,1.23
2023-03-20T00:49:32.583Z,1.13
2023-03-20T00:52:02.203Z,1.25
2023-03-20T00:54:30.242Z,1.40
2023-03-20T00:57:09.707Z,1.45
2023-03-20T00:59:41.505Z,1.63
2023-03-20T01:02:11.726Z,1.50
2023-03-20T01:04:42.202Z,1.35
2023-03-20T01:07:14.919Z,1.15
2023-03-20T01:09:42.531Z,1.55
2023-03-20T01:12:12.848Z,1.10
2023-03-20T01:14:43.303Z,1.20
2023-03-20T01:17:19.189Z,1.05
2023-03-20T01:19:47.762Z,0.95
2023-03-20T01:22:15.717Z,1.13
2023-03-20T01:24:43.355Z,1.42
2023-03-20T01:27:19.288Z,1.60
2023-03-20T01:29:47.458Z,1.77
2023-03-20T01:32:18.289Z,1.80
2023-03-20T01:34:49.125Z,1.30
2023-03-20T01:37:27.660Z,1.55
2023-03-20T01:39:59.327Z,1.38
2023-03-20T01:42:27.821Z,1.25
2023-03-20T01:44:55.728Z,1.88
2023-03-20T01:47:26.117Z,1.50
2023-03-20T01:50:23.457Z,1.58
2023-03-20T01:53:09.614Z,1.30
2023-03-20T01:55:43.851Z,1.10
2023-03-20T01:58:18.763Z,1.63
2023-03-20T02:00:49.077Z,1.63
2023-03-20T02:03:19.992Z,1.40
2023-03-20T02:06:13.651Z,1.65
2023-03-20T02:09:00.147Z,0.90
2023-03-20T02:11:32.595Z,1.52
2023-03-20T02:14:01.577Z,1.20
2023-03-20T02:16:35.805Z,1.77
2023-03-20T02:20:11.689Z,1.55
2023-03-20T02:22:54.173Z,1.65
2023-03-20T02:25:58.733Z,1.50
2023-03-20T02:28:57.681Z,1.70
2023-03-20T02:31:36.324Z,1.60
2023-03-20T02:34:40.246Z,1.42
2023-03-20T02:37:13.573Z,1.23
2023-03-20T02:40:05.766Z,1.65
2023-03-20T02:43:04.762Z,1.42
2023-03-20T02:45:41.986Z,1.48
2023-03-20T02:48:39.889Z,1.50
2023-03-20T02:51:25.081Z,2.10
2023-03-20T02:54:16.482Z,1.90
2023-03-20T02:56:49.400Z,1.63
2023-03-20T02:59:46.111Z,2.38
2023-03-20T03:02:20.765Z,1.70
2023-03-20T03:04:54.021Z,1.50
2023-03-20T03:07:26.771Z,1.65
2023-03-20T03:10:07.697Z,2.45
2023-03-20T03:12:42.340Z,2.42
2023-03-20T03:15:40.546Z,1.92
2023-03-20T03:18:14.205Z,1.63
2023-03-20T03:20:44.098Z,1.90
2023-03-20T03:23:32.775Z,1.90
2023-03-20T03:26:02.516Z,2.22
2023-03-20T03:29:10.097Z,2.13
2023-03-20T03:34:06.001Z,1.50
2023-03-20T03:36:54.036Z,1.73
2023-03-20T03:39:31.203Z,1.70
2023-03-20T03:42:31.565Z,2.08
2023-03-20T03:45:24.319Z,2.08
2023-03-20T03:48:05.112Z,1.48
2023-03-20T03:50:50.582Z,1.70
2023-03-20T03:53:25.739Z,1.67
2023-03-20T03:55:57.786Z,1.70
2023-03-20T03:58:30.759Z,1.92
2023-03-20T04:00:59.945Z,2.00
2023-03-20T04:03:39.541Z,1.90
2023-03-20T04:06:11.565Z,2.08
2023-03-20T04:08:42.497Z,1.92
2023-03-20T04:11:16.819Z,2.05
2023-03-20T04:13:49.735Z,1.92
2023-03-20T04:16:18.515Z,1.85
2023-03-20T04:18:47.209Z,2.03
2023-03-20T04:21:16.774Z,2.28
2023-03-20T04:23:45.465Z,2.30
2023-03-20T04:26:13.335Z,2.38
2023-03-20T04:28:40.858Z,2.25
2023-03-20T04:31:20.478Z,2.20
2023-03-20T04:34:08.190Z,2.35
2023-03-20T04:36:54.542Z,2.20
2023-03-20T04:39:27.238Z,2.40
2023-03-20T04:41:54.817Z,2.60
2023-03-20T04:44:22.298Z,2.33
2023-03-20T04:46:49.815Z,2.47
2023-03-20T04:49:17.999Z,2.42
2023-03-20T04:51:45.583Z,2.38
2023-03-20T04:54:14.903Z,1.98
2023-03-20T04:56:43.440Z,2.10
2023-03-20T04:59:17.555Z,2.55
2023-03-20T05:01:45.119Z,2.42
2023-03-20T05:04:12.842Z,2.50
2023-03-20T05:06:40.482Z,2.25
2023-03-20T05:09:08.020Z,2.80
2023-03-20T05:11:37.476Z,2.70
2023-03-20T05:14:23.624Z,3.20
2023-03-20T05:17:14.036Z,2.67
2023-03-20T05:20:01.751Z,2.70
2023-03-20T05:22:56.452Z,2.42
2023-03-20T05:26:02.719Z,2.90
2023-03-20T05:28:48.798Z,3.20
2023-03-20T05:31:28.200Z,2.60
2023-03-20T05:37:21.389Z,2.88
2023-03-20T05:40:05.180Z,3.47
2023-03-20T05:42:41.492Z,3.50
2023-03-20T05:45:19.711Z,3.30
2023-03-20T05:48:07.482Z,2.83
2023-03-20T05:51:07.143Z,3.08
2023-03-20T05:53:49.104Z,2.97
2023-03-20T05:56:35.517Z,3.55
2023-03-20T05:59:29.028Z,2.17
2023-03-20T06:02:18.919Z,3.00
2023-03-20T06:04:58.436Z,2.95
2023-03-20T06:07:29.404Z,2.38
2023-03-20T06:10:01.845Z,2.10
2023-03-20T06:12:30.756Z,2.83
2023-03-20T06:14:58.681Z,3.08
2023-03-20T06:17:26.944Z,3.42
2023-03-20T06:20:01.225Z,3.70
2023-03-20T06:22:30.199Z,3.80
2023-03-20T06:24:57.616Z,4.38
2023-03-20T06:27:31.492Z,3.05
2023-03-20T06:29:59.125Z,2.60
2023-03-20T06:32:32.086Z,3.70
2023-03-20T06:35:02.379Z,3.38
2023-03-20T06:37:30.232Z,3.03
2023-03-20T06:40:06.937Z,2.05
2023-03-20T06:42:35.849Z,2.05
2023-03-20T06:45:03.850Z,2.33
2023-03-20T06:47:50.549Z,2.00
2023-03-20T06:50:18.098Z,1.67
2023-03-20T06:52:45.791Z,1.98
2023-03-20T06:55:37.473Z,1.63
2023-03-20T06:58:06.033Z,2.17
2023-03-20T07:00:34.764Z,1.80
2023-03-20T07:03:05.768Z,1.73
2023-03-20T07:05:33.936Z,1.90
2023-03-20T07:08:05.254Z,1.75
2023-03-20T07:10:32.943Z,2.20
2023-03-20T07:13:01.153Z,1.95
2023-03-20T07:15:30.140Z,1.75
2023-03-20T07:17:57.921Z,2.35
2023-03-20T07:20:28.146Z,1.70
2023-03-20T07:22:55.811Z,1.83
2023-03-20T07:25:41.827Z,1.70
2023-03-20T07:28:13.150Z,2.67
2023-03-20T07:30:44.494Z,2.25
2023-03-20T07:33:15.462Z,2.40
2023-03-20T07:35:43.573Z,2.00
2023-03-20T07:38:11.229Z,3.05
2023-03-20T07:40:49.496Z,2.40
2023-03-20T07:43:17.605Z,2.20
2023-03-20T07:46:09.292Z,1.88
2023-03-20T07:48:38.823Z,2.33
2023-03-20T07:51:06.746Z,2.70
2023-03-20T07:53:34.325Z,2.30
2023-03-20T07:56:01.840Z,3.30
2023-03-20T07:58:32.478Z,3.10
2023-03-20T08:01:03.725Z,2.85
2023-03-20T08:03:32.061Z,3.10
2023-03-20T08:06:00.478Z,3.72
2023-03-20T08:08:28.178Z,3.15
2023-03-20T08:10:55.640Z,3.40
2023-03-20T08:13:23.200Z,2.45
2023-03-20T08:15:51.804Z,3.00
2023-03-20T08:18:20.246Z,3.50
2023-03-20T08:20:47.980Z,3.17
2023-03-20T08:23:15.895Z,2.67
2023-03-20T08:25:51.226Z,3.33
2023-03-20T08:28:19.180Z,2.80
2023-03-20T08:30:47.381Z,6.53
2023-03-20T08:33:16.406Z,5.07
2023-03-20T08:35:44.216Z,4.85
2023-03-20T08:38:13.563Z,5.53
2023-03-20T08:40:42.223Z,5.57
2023-03-20T08:43:09.777Z,5.88
2023-03-20T08:45:37.494Z,4.63
2023-03-20T08:48:05.244Z,4.57
2023-03-20T08:50:32.960Z,3.70
2023-03-20T08:53:01.154Z,3.97
2023-03-20T08:55:28.639Z,4.57
2023-03-20T08:57:57.447Z,3.97
2023-03-20T09:00:25.210Z,3.72
2023-03-20T09:02:52.852Z,4.00
2023-03-20T09:05:20.464Z,4.90
2023-03-20T09:07:48.193Z,3.60
2023-03-20T09:10:15.699Z,2.92
2023-03-20T09:12:43.141Z,3.05
2023-03-20T09:15:11.898Z,3.20
2023-03-20T09:17:39.393Z,3.15
2023-03-20T09:20:07.290Z,3.00
2023-03-20T09:22:35.000Z,2.80
2023-03-20T09:25:02.456Z,2.58
2023-03-20T09:27:29.952Z,2.53
2023-03-20T09:29:57.392Z,2.60
2023-03-20T09:32:24.927Z,2.80
2023-03-20T09:34:52.552Z,3.45
2023-03-20T09:37:20.049Z,3.08
2023-03-20T09:39:47.536Z,2.75
2023-03-20T09:42:26.132Z,2.70
2023-03-20T09:45:16.774Z,2.65
2023-03-20T09:47:50.024Z,2.28
2023-03-20T09:50:23.779Z,2.22
2023-03-20T09:53:13.158Z,2.00
2023-03-20T09:55:43.003Z,2.83
2023-03-20T09:58:16.990Z,2.33
2023-03-20T10:00:46.674Z,1.90
2023-03-20T10:03:47.897Z,2.08
2023-03-20T10:06:18.030Z,2.45
2023-03-20T10:08:46.377Z,2.63
2023-03-20T10:11:36.962Z,2.60
2023-03-20T10:14:24.508Z,1.70
2023-03-20T10:17:20.822Z,2.08
2023-03-20T10:20:09.754Z,3.17
2023-03-20T10:22:40.896Z,3.05
2023-03-20T10:25:17.087Z,2.72
2023-03-20T10:27:50.135Z,1.92
2023-03-20T10:30:30.761Z,2.00
2023-03-20T10:33:25.284Z,2.00
2023-03-20T10:35:58.315Z,1.90
2023-03-20T10:38:47.323Z,1.85
2023-03-20T10:41:22.084Z,1.80
2023-03-20T10:43:52.932Z,1.92
2023-03-20T10:46:42.498Z,2.00
2023-03-20T10:49:21.690Z,1.65
2023-03-20T10:51:55.052Z,1.70
2023-03-20T10:54:35.866Z,1.80
2023-03-20T10:57:06.193Z,1.80
2023-03-20T10:59:49.880Z,1.55
2023-03-20T11:02:19.509Z,1.70
2023-03-20T11:04:47.615Z,1.52
2023-03-20T11:07:35.874Z,1.75
2023-03-20T11:10:08.883Z,1.65
2023-03-20T11:12:48.996Z,1.75
2023-03-20T11:15:34.452Z,1.70
2023-03-20T11:18:06.615Z,1.67
2023-03-20T11:20:58.519Z,1.98
2023-03-20T11:23:37.620Z,1.75
2023-03-20T11:26:08.505Z,1.38
2023-03-20T11:29:15.513Z,1.23
2023-03-20T11:31:44.354Z,1.60
2023-03-20T11:34:14.906Z,1.10
2023-03-20T11:37:26.045Z,1.40
2023-03-20T11:40:01.135Z,1.30
2023-03-20T11:42:30.746Z,1.33
2023-03-20T11:45:18.046Z,1.80
2023-03-20T11:47:54.520Z,1.00
2023-03-20T11:50:31.592Z,1.08
2023-03-20T11:53:01.101Z,1.10
2023-03-20T11:55:36.433Z,1.33
2023-03-20T11:58:06.511Z,0.98
2023-03-20T12:00:40.872Z,1.00
2023-03-20T12:03:32.978Z,1.05
2023-03-20T12:06:01.404Z,1.40
2023-03-20T12:08:32.028Z,1.13
2023-03-20T12:11:43.406Z,0.80
2023-03-20T12:14:36.410Z,1.00
2023-03-20T12:17:41.696Z,0.60
2023-03-20T12:20:25.332Z,0.65
2023-03-20T12:23:20.607Z,0.93
2023-03-20T12:25:54.961Z,0.80
2023-03-20T12:28:28.237Z,0.80
2023-03-20T12:31:12.251Z,0.70
2023-03-20T12:33:51.513Z,0.70
2023-03-20T12:36:29.759Z,0.68
2023-03-20T12:38:57.446Z,0.80
2023-03-20T12:41:35.409Z,0.95
2023-03-20T12:44:28.393Z,0.90
2023-03-20T12:47:14.981Z,0.95
2023-03-20T12:52:27.293Z,0.80
2023-03-20T12:55:10.192Z,1.00
2023-03-20T12:57:59.972Z,1.00
2023-03-20T13:00:36.607Z,0.90
2023-03-20T13:03:44.354Z,0.80
2023-03-20T13:06:30.784Z,1.00
2023-03-20T13:09:07.192Z,0.70
2023-03-20T13:11:43.307Z,0.70
2023-03-20T13:14:37.311Z,0.90
2023-03-20T13:17:23.310Z,0.85
2023-03-20T13:20:21.558Z,0.73
2023-03-20T13:22:56.001Z,0.80
2023-03-20T13:25:35.767Z,1.10
2023-03-20T13:28:14.993Z,1.20
2023-03-20T13:31:05.586Z,1.60
2023-03-20T13:34:13.367Z,1.20
2023-03-20T13:36:50.380Z,1.08
2023-03-20T13:39:43.663Z,1.00
2023-03-20T13:42:25.845Z,0.88
2023-03-20T13:44:59.844Z,0.93
2023-03-20T13:47:29.009Z,0.80
2023-03-20T13:50:27.563Z,0.88
2023-03-20T13:53:08.393Z,0.80
2023-03-20T13:55:52.274Z,0.80
2023-03-20T13:58:50.187Z,1.02
2023-03-20T14:01:26.262Z,0.90
2023-03-20T14:03:54.739Z,1.02
2023-03-20T14:06:30.822Z,1.20
2023-03-20T14:08:59.678Z,1.30
2023-03-20T14:11:35.401Z,1.58
2023-03-20T14:14:12.636Z,1.35
2023-03-20T14:16:41.425Z,1.30
2023-03-20T14:19:24.738Z,1.55
2023-03-20T14:21:55.693Z,1.60
2023-03-20T14:24:25.134Z,1.40
2023-03-20T14:27:18.232Z,1.75
2023-03-20T14:29:45.882Z,1.50
2023-03-20T14:32:13.264Z,1.40
2023-03-20T14:34:49.679Z,1.63
2023-03-20T14:37:37.793Z,1.73
2023-03-20T14:40:11.514Z,2.03
2023-03-20T14:42:55.906Z,1.90
2023-03-20T14:45:49.388Z,1.80
2023-03-20T14:48:42.794Z,2.00
2023-03-20T14:51:40.881Z,2.00
2023-03-20T14:54:30.410Z,1.90
2023-03-20T14:57:18.018Z,1.50
2023-03-20T14:59:49.556Z,1.70
2023-03-20T15:02:29.027Z,1.88
2023-03-20T15:04:57.594Z,2.42
2023-03-20T15:07:29.185Z,2.60
2023-03-20T15:10:00.778Z,1.88
2023-03-20T15:12:32.778Z,2.15
2023-03-20T15:15:02.978Z,2.65
2023-03-20T15:17:40.032Z,2.75
2023-03-20T15:20:21.342Z,2.17
2023-03-20T15:23:00.927Z,1.90
2023-03-20T15:25:39.932Z,1.80
2023-03-20T15:28:27.901Z,2.53
2023-03-20T15:30:58.585Z,2.17
2023-03-20T15:33:39.449Z,2.78
2023-03-20T15:36:28.233Z,3.00
2023-03-20T15:39:13.787Z,3.00
2023-03-20T15:41:46.809Z,2.60
2023-03-20T15:44:24.814Z,2.95
2023-03-20T15:47:05.151Z,2.80
2023-03-20T15:49:33.156Z,2.58
2023-03-20T15:52:05.165Z,2.22
2023-03-20T15:54:35.221Z,2.30
2023-03-20T15:57:03.374Z,3.30
2023-03-20T15:59:34.166Z,3.05
2023-03-20T16:02:03.583Z,4.72
2023-03-20T16:04:31.254Z,3.20
2023-03-20T16:07:00.802Z,2.90
2023-03-20T16:09:29.311Z,3.70
2023-03-20T16:12:02.013Z,3.45
2023-03-20T16:14:33.217Z,4.00
2023-03-20T16:17:02.482Z,4.15
2023-03-20T16:19:30.126Z,3.17
2023-03-20T16:22:01.785Z,3.10
2023-03-20T16:24:31.631Z,3.65
2023-03-20T16:26:59.093Z,2.70
2023-03-20T16:29:28.095Z,3.47
2023-03-20T16:31:59.716Z,2.50
2023-03-20T16:34:34.051Z,2.45
2023-03-20T16:37:06.649Z,3.33
2023-03-20T16:39:34.191Z,3.53
2023-03-20T16:42:22.552Z,2.67
2023-03-20T16:44:56.213Z,2.88
2023-03-20T16:47:46.022Z,2.72
2023-03-20T16:50:19.549Z,3.63
2023-03-20T16:52:50.752Z,2.80
2023-03-20T16:55:24.178Z,3.13
2023-03-20T16:57:56.301Z,2.90
2023-03-20T17:00:33.111Z,2.75
2023-03-20T17:03:14.156Z,2.97
2023-03-20T17:05:53.492Z,2.80
2023-03-20T17:08:37.087Z,2.20
2023-03-20T17:11:16.890Z,2.17
2023-03-20T17:13:44.868Z,2.00
2023-03-20T17:16:19.605Z,1.98
2023-03-20T17:18:48.488Z,2.97
2023-03-20T17:21:16.319Z,2.30
2023-03-20T17:23:43.774Z,3.38
2023-03-20T17:26:12.937Z,2.78
2023-03-20T17:28:41.772Z,2.70
2023-03-20T17:31:18.946Z,2.45
2023-03-20T17:33:46.934Z,2.67
2023-03-20T17:36:29.921Z,3.05
2023-03-20T17:38:58.778Z,2.47
2023-03-20T17:41:27.208Z,3.15
2023-03-20T17:43:58.139Z,3.30
2023-03-20T17:46:28.428Z,3.75
2023-03-20T17:49:02.381Z,3.67
2023-03-20T17:51:30.403Z,3.63
2023-03-20T17:53:58.076Z,3.38
2023-03-20T17:56:32.730Z,3.67
2023-03-20T17:59:01.322Z,4.68
2023-03-20T18:01:32.473Z,3.75
2023-03-20T18:04:00.424Z,4.82
2023-03-20T18:06:33.273Z,4.35
2023-03-20T18:09:02.161Z,4.07
2023-03-20T18:11:29.959Z,3.38
2023-03-20T18:13:57.551Z,3.67
2023-03-20T18:16:27.119Z,3.67
2023-03-20T18:18:55.534Z,3.33
2023-03-20T18:21:23.267Z,2.85
2023-03-20T18:23:50.842Z,2.78
2023-03-20T18:26:22.513Z,2.75
2023-03-20T18:28:52.031Z,2.50
2023-03-20T18:31:21.021Z,2.72
2023-03-20T18:33:50.455Z,2.60
2023-03-20T18:36:20.923Z,3.03
2023-03-20T18:38:48.813Z,2.60
2023-03-20T18:41:16.354Z,2.95
2023-03-20T18:43:46.411Z,2.85
2023-03-20T18:46:19.836Z,2.65
2023-03-20T18:48:48.162Z,2.40
2023-03-20T18:51:16.042Z,3.33
2023-03-20T18:53:43.786Z,3.30
2023-03-20T18:56:19.783Z,2.88
2023-03-20T19:01:15.971Z,2.90
2023-03-20T19:03:44.872Z,2.65
2023-03-20T19:06:17.715Z,3.35
2023-03-20T19:08:46.314Z,3.03
2023-03-20T19:11:15.400Z,3.58
2023-03-20T19:13:47.399Z,2.63
2023-03-20T19:16:32.221Z,2.65
2023-03-20T19:19:01.842Z,2.80
2023-03-20T19:21:33.939Z,3.05
2023-03-20T19:24:04.925Z,2.75
2023-03-20T19:26:33.704Z,3.20
2023-03-20T19:29:02.990Z,2.58
2023-03-20T19:31:30.743Z,2.10
2023-03-20T19:33:58.196Z,3.47
2023-03-20T19:36:34.602Z,2.92
2023-03-20T19:39:04.525Z,3.30
2023-03-20T19:41:32.567Z,2.58
2023-03-20T19:44:01.463Z,2.15
2023-03-20T19:46:39.680Z,3.42
2023-03-20T19:49:20.245Z,3.60
2023-03-20T19:51:48.986Z,7.50
2023-03-20T19:54:17.233Z,3.08
2023-03-20T19:56:44.823Z,3.67
2023-03-20T19:59:16.085Z,3.88
2023-03-20T20:01:45.481Z,3.33
2023-03-20T20:04:13.275Z,4.88
2023-03-20T20:06:41.857Z,3.53
2023-03-20T20:09:09.693Z,3.22
2023-03-20T20:11:38.652Z,3.70
2023-03-20T20:14:09.690Z,3.80
2023-03-20T20:16:43.285Z,3.15
2023-03-20T20:19:11.485Z,3.65
2023-03-20T20:24:27.448Z,3.75
2023-03-20T20:27:14.630Z,4.28
2023-03-20T20:29:46.318Z,4.28
2023-03-20T20:32:13.854Z,4.45
2023-03-20T20:40:19.975Z,4.30
2023-03-20T20:42:49.356Z,4.82
2023-03-20T20:45:17.426Z,5.68
2023-03-20T20:47:46.627Z,4.28
2023-03-20T20:50:15.998Z,5.10
2023-03-20T20:52:44.794Z,4.50
2023-03-20T20:55:22.456Z,4.55
2023-03-20T20:57:57.984Z,4.00
2023-03-20T21:00:41.103Z,3.63
2023-03-20T21:03:14.158Z,3.75
2023-03-20T21:05:43.360Z,3.88
2023-03-20T21:08:12.097Z,4.32
2023-03-20T21:10:40.143Z,4.25
2023-03-20T21:13:08.701Z,3.97
2023-03-20T21:15:36.667Z,3.72
2023-03-20T21:18:04.617Z,3.13
2023-03-20T21:20:32.950Z,3.50
2023-03-20T21:23:00.534Z,3.40
2023-03-20T21:25:39.503Z,3.78
2023-03-20T21:28:08.543Z,3.90
2023-03-20T21:30:36.484Z,4.30
2023-03-20T21:33:04.063Z,4.05
2023-03-20T21:35:31.694Z,3.60
2023-03-20T21:40:48.134Z,3.38
2023-03-20T21:43:16.999Z,3.75
2023-03-20T21:46:37.313Z,4.47
2023-03-20T21:54:56.735Z,3.20
2023-03-20T21:57:34.924Z,3.83
2023-03-20T22:00:27.727Z,3.90
2023-03-20T22:02:36.513Z,4.43
2023-03-20T22:08:43.043Z,3.95
2023-03-20T22:17:32.687Z,5.20
2023-03-20T22:22:42.597Z,3.83
2023-03-20T22:33:58.731Z,3.15
2023-03-20T22:39:40.764Z,3.63
2023-03-20T22:42:22.386Z,3.58
2023-03-20T22:47:07.739Z,4.30
2023-03-20T22:49:35.406Z,4.40
2023-03-20T22:52:22.534Z,5.18
2023-03-20T22:54:50.491Z,4.95
2023-03-20T22:57:18.422Z,5.38
2023-03-20T22:59:46.029Z,6.07
2023-03-20T23:02:13.474Z,4.85
2023-03-20T23:04:41.078Z,5.03
2023-03-20T23:07:08.513Z,4.60
2023-03-20T23:09:36.095Z,4.80
2023-03-20T23:12:03.681Z,5.43
2023-03-20T23:14:44.766Z,5.97
2023-03-20T23:17:13.295Z,6.55
2023-03-20T23:19:47.983Z,5.97
2023-03-20T23:22:17.941Z,7.72
2023-03-20T23:24:45.452Z,7.32
2023-03-20T23:27:12.960Z,4.95
2023-03-20T23:29:40.979Z,4.47
2023-03-20T23:32:08.575Z,4.80
2023-03-20T23:34:37.042Z,5.05
2023-03-20T23:37:04.501Z,4.97
2023-03-20T23:39:31.916Z,6.47
2023-03-20T23:42:11.922Z,6.13
2023-03-20T23:44:49.895Z,9.00
2023-03-20T23:47:25.724Z,8.20
2023-03-20T23:49:55.044Z,10.38
2023-03-20T23:52:22.463Z,9.82
2023-03-20T23:54:49.993Z,10.45
2023-03-20T23:57:17.471Z,10.30
2023-03-20T23:59:45.041Z,10.38
